Time;durP1;ratioP1;P1;durP2;ratioP2;P2;SDS_P1;SDS_P2;PMS_P1;PMS_P2;Temp;Humidity;BMP_temperature;BMP_pressure;BME280_temperature;BME280_humidity;BME280_pressure;Samples;Min_cycle;Max_cycle;Signal;HPM_P1;HPM_P2
2022/11/28 00:00:07;;;;;;;0.17;0.17;;;7.30;99.90;;;;;;5036713;28;20578;-67
2022/11/28 00:02:32;;;;;;;0.30;0.30;;;7.30;99.90;;;;;;5007783;28;20083;-67
2022/11/28 00:04:58;;;;;;;0.70;0.65;;;7.30;99.90;;;;;;5019069;28;20038;-67
2022/11/28 00:07:23;;;;;;;0.20;0.20;;;7.40;99.90;;;;;;5026110;28;20309;-67
2022/11/28 00:09:49;;;;;;;1.48;1.38;;;7.40;99.90;;;;;;5009355;28;20056;-67
2022/11/28 00:12:14;;;;;;;0.10;0.10;;;7.30;99.90;;;;;;5045145;28;20048;-67
2022/11/28 00:14:40;;;;;;;0.35;0.35;;;7.40;99.90;;;;;;5046076;28;20041;-67
2022/11/28 00:17:05;;;;;;;1.38;1.30;;;7.30;99.90;;;;;;5029396;28;20500;-67
2022/11/28 00:19:31;;;;;;;0.10;0.10;;;7.40;99.90;;;;;;5018096;28;20441;-67
2022/11/28 00:21:57;;;;;;;0.30;0.30;;;7.30;99.90;;;;;;5010768;28;20038;-67
2022/11/28 00:24:22;;;;;;;0.10;0.10;;;7.30;99.90;;;;;;5020222;28;20045;-67
2022/11/28 00:26:48;;;;;;;0.75;0.75;;;7.40;99.90;;;;;;5012078;28;20050;-67
2022/11/28 00:29:13;;;;;;;0.10;0.10;;;7.40;99.90;;;;;;5010450;28;20085;-67
2022/11/28 00:31:43;;;;;;;0.10;0.10;;;7.40;99.90;;;;;;5011979;28;20054;-67
2022/11/28 00:34:11;;;;;;;0.10;0.10;;;7.30;99.90;;;;;;5010692;28;20184;-67
2022/11/28 00:36:37;;;;;;;4.28;2.30;;;7.40;99.90;;;;;;5018133;28;20046;-67
2022/11/28 00:39:04;;;;;;;0.10;0.10;;;7.30;99.90;;;;;;5027000;28;20587;-67
2022/11/28 00:41:32;;;;;;;0.10;0.10;;;7.30;99.90;;;;;;5019195;28;20646;-67
2022/11/28 00:43:58;;;;;;;1.15;1.05;;;7.30;99.90;;;;;;5030386;28;20044;-67
2022/11/28 00:46:24;;;;;;;1.02;0.98;;;7.30;99.90;;;;;;5018767;28;20053;-67
2022/11/28 00:48:50;;;;;;;0.50;0.50;;;7.30;99.90;;;;;;5011577;28;20050;-67
2022/11/28 00:51:19;;;;;;;0.50;0.50;;;7.40;99.90;;;;;;5010190;28;20038;-67
2022/11/28 00:53:46;;;;;;;0.35;0.35;;;7.40;99.90;;;;;;5011348;28;20038;-67
2022/11/28 00:56:15;;;;;;;0.20;0.20;;;7.30;99.90;;;;;;5044980;28;20041;-67
2022/11/28 00:58:41;;;;;;;0.32;0.32;;;7.40;99.90;;;;;;5030219;28;20116;-67
2022/11/28 01:01:22;;;;;;;0.70;0.70;;;7.30;99.90;;;;;;5030938;28;20595;-67
2022/11/28 01:03:49;;;;;;;0.10;0.10;;;7.30;99.90;;;;;;5010169;28;20495;-67
2022/11/28 01:06:33;;;;;;;0.52;0.52;;;7.30;99.90;;;;;;5010744;28;20049;-67
2022/11/28 01:09:01;;;;;;;1.65;0.95;;;7.30;99.90;;;;;;5021246;28;20046;-67
2022/11/28 01:11:27;;;;;;;0.35;0.35;;;7.40;99.90;;;;;;5012474;28;20042;-67
2022/11/28 01:13:55;;;;;;;0.17;0.17;;;7.40;99.90;;;;;;5010455;28;20038;-67
2022/11/28 01:16:21;;;;;;;0.55;0.55;;;7.40;99.90;;;;;;5012524;28;20609;-67
2022/11/28 01:18:46;;;;;;;0.73;0.73;;;7.40;99.90;;;;;;5008658;28;20121;-67
2022/11/28 01:21:12;;;;;;;0.28;0.28;;;7.30;99.90;;;;;;5011228;28;20088;-67
2022/11/28 01:23:38;;;;;;;0.30;0.30;;;7.40;99.90;;;;;;5036501;28;20590;-67
2022/11/28 01:26:07;;;;;;;0.10;0.10;;;7.30;99.90;;;;;;5050017;28;20419;-67
2022/11/28 01:28:34;;;;;;;0.85;0.85;;;7.30;99.90;;;;;;5013057;28;20050;-67
2022/11/28 01:31:08;;;;;;;0.22;0.22;;;7.30;99.90;;;;;;5015038;28;20397;-67
2022/11/28 01:33:33;;;;;;;0.20;0.20;;;7.30;99.90;;;;;;5026711;28;20073;-67
2022/11/28 01:35:59;;;;;;;0.28;0.28;;;7.30;99.90;;;;;;5030549;28;20080;-67
2022/11/28 01:38:26;;;;;;;0.35;0.35;;;7.40;99.90;;;;;;5020335;28;20507;-67
2022/11/28 01:40:53;;;;;;;1.50;0.98;;;7.30;99.90;;;;;;5040755;28;20045;-67
2022/11/28 01:43:19;;;;;;;0.30;0.30;;;7.20;99.90;;;;;;5050413;28;20611;-67
2022/11/28 01:45:45;;;;;;;0.10;0.10;;;7.30;99.90;;;;;;5026621;28;20053;-67
2022/11/28 01:48:14;;;;;;;0.52;0.52;;;7.30;99.90;;;;;;5010056;28;20061;-67
2022/11/28 01:50:42;;;;;;;0.63;0.63;;;7.30;99.90;;;;;;5010295;28;20058;-67
2022/11/28 01:53:10;;;;;;;2.13;1.08;;;7.40;99.90;;;;;;5017450;28;20100;-67
2022/11/28 01:55:43;;;;;;;0.75;0.75;;;7.40;99.90;;;;;;5032055;28;20174;-67
2022/11/28 01:58:10;;;;;;;0.10;0.10;;;7.30;99.90;;;;;;5036135;28;20038;-67
2022/11/28 02:00:36;;;;;;;0.15;0.15;;;7.30;99.90;;;;;;5007798;28;20065;-67
2022/11/28 02:03:08;;;;;;;0.73;0.73;;;7.30;99.90;;;;;;5012051;28;20080;-67
2022/11/28 02:05:33;;;;;;;0.20;0.20;;;7.30;99.90;;;;;;5029564;28;20073;-67
2022/11/28 02:07:59;;;;;;;0.10;0.10;;;7.40;99.90;;;;;;5014408;28;20131;-67
2022/11/28 02:10:45;;;;;;;0.10;0.10;;;7.30;99.90;;;;;;5029634;28;20049;-67
2022/11/28 02:13:28;;;;;;;0.15;0.15;;;7.30;99.90;;;;;;5024245;28;20041;-67
2022/11/28 02:16:27;;;;;;;0.17;0.17;;;7.30;99.90;;;;;;5024232;28;20112;-67
2022/11/28 02:18:59;;;;;;;0.10;0.10;;;7.30;99.90;;;;;;5030420;28;20046;-67
2022/11/28 02:22:04;;;;;;;0.22;0.22;;;7.30;99.90;;;;;;5007688;28;20709;-67
2022/11/28 02:24:29;;;;;;;0.77;0.77;;;7.30;99.90;;;;;;5008894;28;20053;-67
2022/11/28 02:26:54;;;;;;;0.00;0.00;;;7.30;99.90;;;;;;5008333;28;20555;-67
2022/11/28 02:29:33;;;;;;;0.10;0.10;;;7.40;99.90;;;;;;5008731;28;20156;-67
2022/11/28 02:32:01;;;;;;;0.10;0.10;;;7.30;99.90;;;;;;5019289;28;20061;-67
2022/11/28 02:34:41;;;;;;;0.20;0.20;;;7.30;99.90;;;;;;5009182;28;20049;-67
2022/11/28 02:37:14;;;;;;;0.63;0.63;;;7.30;99.90;;;;;;5009015;28;20056;-67
2022/11/28 02:39:58;;;;;;;0.10;0.10;;;7.30;99.90;;;;;;5008849;28;20069;-68
2022/11/28 02:42:26;;;;;;;;;;;7.40;99.90;;;;;;5018769;28;20041;-67
2022/11/28 02:45:04;;;;;;;0.55;0.55;;;7.40;99.90;;;;;;5016830;28;20463;-67
2022/11/28 02:47:34;;;;;;;0.25;0.25;;;7.40;99.90;;;;;;5009423;28;20153;-67
2022/11/28 02:50:14;;;;;;;0.15;0.15;;;7.40;99.90;;;;;;5008132;28;20123;-67
2022/11/28 02:52:56;;;;;;;0.10;0.10;;;7.40;99.90;;;;;;5022813;28;20080;-67
2022/11/28 02:55:22;;;;;;;0.57;0.57;;;7.40;99.90;;;;;;5029501;28;20048;-67
2022/11/28 02:57:50;;;;;;;0.40;0.40;;;7.40;99.90;;;;;;5024412;28;20056;-67
2022/11/28 03:00:25;;;;;;;0.20;0.20;;;7.40;99.90;;;;;;5010845;28;20030;-67
2022/11/28 03:03:12;;;;;;;0.17;0.17;;;7.40;99.90;;;;;;5032299;28;20046;-67
2022/11/28 03:06:02;;;;;;;0.10;0.10;;;7.50;99.90;;;;;;5008272;28;20436;-67
2022/11/28 03:08:35;;;;;;;0.50;0.50;;;7.50;99.90;;;;;;5008409;28;20037;-67
2022/11/28 03:11:05;;;;;;;;;;;7.50;99.90;;;;;;5012560;28;20108;-67
2022/11/28 03:13:33;;;;;;;0.28;0.28;;;7.50;99.90;;;;;;5008331;28;20688;-67
2022/11/28 03:16:25;;;;;;;0.82;0.82;;;7.50;99.90;;;;;;5024570;28;20647;-67
2022/11/28 03:19:05;;;;;;;0.10;0.10;;;7.50;99.90;;;;;;5036753;28;20045;-67
2022/11/28 03:21:47;;;;;;;0.85;0.85;;;7.50;99.90;;;;;;5026513;28;20080;-68
2022/11/28 03:24:31;;;;;;;0.47;0.47;;;7.50;99.90;;;;;;5014302;28;20046;-67
2022/11/28 03:27:24;;;;;;;0.30;0.30;;;7.50;99.90;;;;;;5008597;28;20060;-67
2022/11/28 03:29:57;;;;;;;0.10;0.10;;;7.50;99.90;;;;;;5039002;28;20117;-67
2022/11/28 03:32:30;;;;;;;0.30;0.30;;;7.50;99.90;;;;;;5027118;28;20049;-67
2022/11/28 03:35:04;;;;;;;1.75;0.38;;;7.50;99.90;;;;;;5028792;28;20381;-67
2022/11/28 03:37:34;;;;;;;0.10;0.10;;;7.60;99.90;;;;;;5027752;28;20091;-67
2022/11/28 03:40:09;;;;;;;0.20;0.20;;;7.60;99.90;;;;;;5014961;28;20073;-67
2022/11/28 03:42:41;;;;;;;0.10;0.10;;;7.50;99.90;;;;;;5034072;28;20041;-67
2022/11/28 03:45:16;;;;;;;0.10;0.10;;;7.60;99.90;;;;;;5047570;28;20036;-67
2022/11/28 03:47:51;;;;;;;2.83;1.45;;;7.60;99.90;;;;;;5012127;28;20045;-67
2022/11/28 03:50:22;;;;;;;0.20;0.20;;;7.60;99.90;;;;;;5013185;28;20077;-67
2022/11/28 03:52:58;;;;;;;0.10;0.10;;;7.60;99.90;;;;;;5025482;28;20116;-67
2022/11/28 03:55:33;;;;;;;0.10;0.10;;;7.60;99.90;;;;;;5031371;28;20046;-67
2022/11/28 03:58:25;;;;;;;0.30;0.30;;;7.60;99.90;;;;;;5050271;28;20067;-68
2022/11/28 04:01:08;;;;;;;0.10;0.10;;;7.60;99.90;;;;;;5026574;28;20065;-67
2022/11/28 04:03:53;;;;;;;0.10;0.10;;;7.60;99.90;;;;;;5011797;28;20038;-67
2022/11/28 04:06:27;;;;;;;1.63;1.48;;;7.60;99.90;;;;;;5013104;28;20045;-67
2022/11/28 04:09:07;;;;;;;0.50;0.50;;;7.60;99.90;;;;;;5012196;28;20045;-67
2022/11/28 04:11:40;;;;;;;0.10;0.10;;;7.60;99.90;;;;;;5012162;28;20158;-67
2022/11/28 04:14:22;;;;;;;0.10;0.10;;;7.60;99.90;;;;;;5030224;28;20077;-67
2022/11/28 04:16:57;;;;;;;0.52;0.52;;;7.60;99.90;;;;;;5032070;28;20502;-67
2022/11/28 04:19:37;;;;;;;0.10;0.10;;;7.70;99.90;;;;;;5024394;28;20034;-67
2022/11/28 04:22:27;;;;;;;0.13;0.13;;;7.70;99.90;;;;;;5021219;28;20045;-67
2022/11/28 04:25:13;;;;;;;0.10;0.10;;;7.70;99.90;;;;;;5029794;28;20125;-67
2022/11/28 04:27:55;;;;;;;0.10;0.10;;;7.70;99.90;;;;;;5018770;28;20041;-67
2022/11/28 04:30:21;;;;;;;1.52;0.47;;;7.70;99.90;;;;;;5011354;28;20532;-67
2022/11/28 04:32:50;;;;;;;0.25;0.25;;;7.70;99.90;;;;;;5029389;28;20131;-67
2022/11/28 04:35:24;;;;;;;0.10;0.10;;;7.70;99.90;;;;;;5030682;28;20048;-67
2022/11/28 04:37:50;;;;;;;;;;;7.70;99.90;;;;;;5031853;28;20477;-67
2022/11/28 04:40:18;;;;;;;0.10;0.10;;;7.70;99.90;;;;;;5042028;28;19920;-67
2022/11/28 04:42:48;;;;;;;0.10;0.10;;;7.70;99.90;;;;;;5034288;28;20068;-67
2022/11/28 04:45:20;;;;;;;0.10;0.10;;;7.70;99.90;;;;;;5030786;28;20579;-67
2022/11/28 04:47:46;;;;;;;0.10;0.10;;;7.80;99.90;;;;;;5031092;28;20056;-67
2022/11/28 04:50:13;;;;;;;0.10;0.10;;;7.80;99.90;;;;;;5012951;28;20620;-67
2022/11/28 04:53:00;;;;;;;0.10;0.10;;;7.80;99.90;;;;;;5026175;28;20041;-67
2022/11/28 04:55:40;;;;;;;0.30;0.30;;;7.80;99.90;;;;;;5014582;28;20068;-67
2022/11/28 04:58:21;;;;;;;0.10;0.10;;;7.80;99.90;;;;;;5026988;28;20133;-67
2022/11/28 05:00:48;;;;;;;0.10;0.10;;;7.80;99.90;;;;;;5011201;28;20046;-67
2022/11/28 05:03:15;;;;;;;0.20;0.20;;;7.80;99.90;;;;;;5012706;28;20104;-67
2022/11/28 05:05:44;;;;;;;0.20;0.20;;;7.80;99.90;;;;;;5025859;28;20693;-69
2022/11/28 05:08:10;;;;;;;0.93;0.90;;;7.80;99.90;;;;;;5011731;28;20053;-67
2022/11/28 05:10:36;;;;;;;0.10;0.10;;;7.80;99.90;;;;;;5020356;28;20041;-68
2022/11/28 05:13:02;;;;;;;0.10;0.10;;;7.80;99.90;;;;;;5029200;28;20049;-67
2022/11/28 05:15:27;;;;;;;0.20;0.20;;;7.80;99.90;;;;;;5035201;28;20048;-67
2022/11/28 05:17:53;;;;;;;0.10;0.10;;;7.80;99.90;;;;;;5016506;28;20052;-67
2022/11/28 05:20:18;;;;;;;0.10;0.10;;;7.80;99.90;;;;;;5028160;28;20508;-67
2022/11/28 05:22:44;;;;;;;0.10;0.10;;;7.90;99.90;;;;;;5016487;28;20100;-67
2022/11/28 05:25:09;;;;;;;0.35;0.35;;;7.90;99.90;;;;;;5038796;28;20156;-67
2022/11/28 05:27:35;;;;;;;0.10;0.10;;;7.90;99.90;;;;;;5017698;28;20046;-67
2022/11/28 05:30:01;;;;;;;1.55;1.20;;;7.90;99.90;;;;;;5027810;28;20089;-67
2022/11/28 05:32:31;;;;;;;0.10;0.10;;;7.90;99.90;;;;;;5042939;28;20044;-67
2022/11/28 05:34:56;;;;;;;0.47;0.47;;;7.90;99.90;;;;;;5030830;28;20046;-67
2022/11/28 05:37:22;;;;;;;0.10;0.10;;;7.90;99.90;;;;;;5018144;28;20409;-67
2022/11/28 05:39:48;;;;;;;0.10;0.10;;;8.00;99.90;;;;;;5015650;28;20560;-67
2022/11/28 05:42:13;;;;;;;0.20;0.20;;;8.00;99.90;;;;;;5023852;28;20067;-67
2022/11/28 05:44:39;;;;;;;0.25;0.25;;;8.00;99.90;;;;;;5040057;28;20048;-67
2022/11/28 05:47:04;;;;;;;0.15;0.15;;;8.00;99.90;;;;;;5028453;28;20107;-67
2022/11/28 05:49:30;;;;;;;0.10;0.10;;;8.00;99.90;;;;;;5014499;28;20046;-67
2022/11/28 05:51:55;;;;;;;0.43;0.43;;;8.00;99.90;;;;;;5020342;28;20046;-67
2022/11/28 05:54:21;;;;;;;0.10;0.10;;;8.00;99.90;;;;;;5049854;28;20512;-66
2022/11/28 05:56:47;;;;;;;0.32;0.32;;;8.10;99.90;;;;;;5049976;28;20481;-67
2022/11/28 05:59:13;;;;;;;0.65;0.63;;;8.10;99.90;;;;;;5025907;28;20478;-68
2022/11/28 06:01:38;;;;;;;0.10;0.10;;;8.10;99.90;;;;;;5028720;28;20138;-66
2022/11/28 06:04:04;;;;;;;0.25;0.25;;;8.10;99.90;;;;;;5028487;28;20665;-67
2022/11/28 06:06:32;;;;;;;0.30;0.30;;;8.10;99.90;;;;;;5014375;28;20065;-66
2022/11/28 06:08:58;;;;;;;0.00;0.00;;;8.10;99.90;;;;;;5014215;28;20120;-67
2022/11/28 06:11:26;;;;;;;0.45;0.45;;;8.10;99.90;;;;;;5026071;28;20453;-67
2022/11/28 06:13:52;;;;;;;0.10;0.10;;;8.10;99.90;;;;;;5035466;28;20033;-67
2022/11/28 06:16:23;;;;;;;0.00;0.00;;;8.20;99.90;;;;;;5026680;28;20037;-67
2022/11/28 06:18:53;;;;;;;0.20;0.20;;;8.20;99.90;;;;;;5013044;28;20033;-67
2022/11/28 06:21:19;;;;;;;0.10;0.10;;;8.20;99.90;;;;;;5009084;28;20041;-67
2022/11/28 06:23:44;;;;;;;0.10;0.10;;;8.20;99.90;;;;;;5025973;28;20509;-68
2022/11/28 06:26:14;;;;;;;0.20;0.20;;;8.20;99.90;;;;;;5034567;28;20042;-67
2022/11/28 06:28:40;;;;;;;0.10;0.10;;;8.20;99.90;;;;;;5022873;28;20082;-67
2022/11/28 06:31:18;;;;;;;0.10;0.10;;;8.30;99.90;;;;;;5035214;28;20060;-67
2022/11/28 06:33:44;;;;;;;0.10;0.10;;;8.20;99.90;;;;;;5029434;28;20571;-67
2022/11/28 06:36:11;;;;;;;0.00;0.00;;;8.20;99.90;;;;;;5010854;28;20046;-67
2022/11/28 06:38:37;;;;;;;0.45;0.40;;;8.30;99.90;;;;;;5029296;28;20202;-67
2022/11/28 06:41:05;;;;;;;0.10;0.10;;;8.30;99.90;;;;;;5021585;28;20046;-67
2022/11/28 06:43:31;;;;;;;0.25;0.25;;;8.30;99.90;;;;;;5007231;28;20103;-67
2022/11/28 06:45:57;;;;;;;0.00;0.00;;;8.30;99.90;;;;;;5008257;28;20041;-67
2022/11/28 06:48:23;;;;;;;0.20;0.20;;;8.30;99.90;;;;;;5009090;28;20500;-67
2022/11/28 06:50:49;;;;;;;1.75;1.10;;;8.30;99.90;;;;;;5011221;28;20052;-67
2022/11/28 06:53:15;;;;;;;0.30;0.30;;;8.30;99.90;;;;;;5015960;28;20046;-67
2022/11/28 06:55:41;;;;;;;0.35;0.35;;;8.40;99.90;;;;;;5008409;28;20052;-67
2022/11/28 06:58:07;;;;;;;0.10;0.10;;;8.40;99.90;;;;;;5008487;28;20049;-67
2022/11/28 07:00:33;;;;;;;0.10;0.10;;;8.30;99.90;;;;;;5008921;28;20507;-68
2022/11/28 07:02:58;;;;;;;0.10;0.10;;;8.40;99.90;;;;;;5012888;28;20041;-68
2022/11/28 07:05:26;;;;;;;0.10;0.10;;;8.40;99.90;;;;;;5007144;28;20179;-67
2022/11/28 07:07:55;;;;;;;0.00;0.00;;;8.50;99.90;;;;;;5008854;28;20049;-67
2022/11/28 07:10:21;;;;;;;0.17;0.17;;;8.40;99.90;;;;;;5008349;28;20093;-68
2022/11/28 07:12:51;;;;;;;0.10;0.10;;;8.40;99.90;;;;;;5012193;28;20555;-68
2022/11/28 07:15:17;;;;;;;0.10;0.10;;;8.40;99.90;;;;;;5021097;28;20042;-68
2022/11/28 07:17:42;;;;;;;0.32;0.32;;;8.50;99.90;;;;;;5006661;28;20060;-67
2022/11/28 07:20:08;;;;;;;0.10;0.10;;;8.50;99.90;;;;;;5007536;28;20504;-68
2022/11/28 07:22:34;;;;;;;0.10;0.10;;;8.50;99.90;;;;;;5030835;28;20514;-67
2022/11/28 07:24:59;;;;;;;0.45;0.45;;;8.50;99.90;;;;;;5024795;28;20037;-68
2022/11/28 07:27:25;;;;;;;0.20;0.20;;;8.50;99.90;;;;;;5006794;28;20045;-67
2022/11/28 07:29:50;;;;;;;3.30;0.75;;;8.50;99.90;;;;;;5008228;28;20401;-68
2022/11/28 07:32:17;;;;;;;0.10;0.10;;;8.50;99.90;;;;;;5024052;28;20050;-67
2022/11/28 07:34:44;;;;;;;2.35;0.90;;;8.50;99.90;;;;;;5013099;28;20133;-67
2022/11/28 07:37:09;;;;;;;0.10;0.10;;;8.50;99.90;;;;;;5028586;28;20046;-68
2022/11/28 07:39:35;;;;;;;0.15;0.15;;;8.50;99.90;;;;;;5010263;28;20365;-67
2022/11/28 07:42:00;;;;;;;0.45;0.30;;;8.60;99.90;;;;;;5013774;28;20176;-67
2022/11/28 07:44:26;;;;;;;0.13;0.13;;;8.50;99.90;;;;;;5028322;28;20137;-67
2022/11/28 07:46:52;;;;;;;0.10;0.10;;;8.60;99.90;;;;;;5022945;28;20039;-66
2022/11/28 07:49:17;;;;;;;0.50;0.50;;;8.50;99.90;;;;;;5024433;28;20265;-67
2022/11/28 07:51:43;;;;;;;0.10;0.10;;;8.60;99.90;;;;;;5026709;28;20041;-67
2022/11/28 07:54:09;;;;;;;0.10;0.10;;;8.60;99.90;;;;;;5020297;28;20315;-66
2022/11/28 07:56:36;;;;;;;0.10;0.10;;;8.60;99.90;;;;;;5025686;28;20045;-66
2022/11/28 07:59:03;;;;;;;0.10;0.10;;;8.60;99.90;;;;;;5023757;28;20041;-67
2022/11/28 08:01:32;;;;;;;0.30;0.30;;;8.60;99.90;;;;;;5024029;28;20042;-67
2022/11/28 08:03:58;;;;;;;0.10;0.10;;;8.60;99.90;;;;;;5013895;28;20049;-67
2022/11/28 08:06:26;;;;;;;0.00;0.00;;;8.60;99.90;;;;;;5007702;28;20116;-67
2022/11/28 08:08:53;;;;;;;0.25;0.25;;;8.60;99.90;;;;;;5007493;28;20030;-67
2022/11/28 08:11:21;;;;;;;0.20;0.20;;;8.60;99.90;;;;;;5016048;28;20050;-67
2022/11/28 08:13:47;;;;;;;0.70;0.55;;;8.60;99.90;;;;;;5007502;28;20125;-66
2022/11/28 08:16:15;;;;;;;0.30;0.30;;;8.60;99.90;;;;;;5013105;28;20132;-67
2022/11/28 08:18:41;;;;;;;0.10;0.10;;;8.60;99.90;;;;;;5008160;28;20046;-67
2022/11/28 08:21:10;;;;;;;0.10;0.10;;;8.60;99.90;;;;;;5007202;28;20120;-66
2022/11/28 08:23:37;;;;;;;0.10;0.10;;;8.60;99.90;;;;;;5027804;28;20041;-67
2022/11/28 08:26:05;;;;;;;1.05;0.95;;;8.60;99.90;;;;;;5014300;28;20100;-66
2022/11/28 08:28:31;;;;;;;0.30;0.30;;;8.60;99.90;;;;;;5008752;28;20117;-67
2022/11/28 08:30:58;;;;;;;0.10;0.10;;;8.60;99.90;;;;;;5009978;28;20062;-66
2022/11/28 08:33:24;;;;;;;1.10;1.10;;;8.60;99.90;;;;;;5015348;28;20161;-66
2022/11/28 08:35:50;;;;;;;1.08;1.08;;;8.70;99.90;;;;;;5019786;28;20041;-66
2022/11/28 08:38:16;;;;;;;1.13;1.13;;;8.60;99.90;;;;;;5028458;28;20116;-66
2022/11/28 08:40:42;;;;;;;1.52;0.73;;;8.60;99.90;;;;;;5012928;28;20831;-66
2022/11/28 08:43:08;;;;;;;0.90;0.73;;;8.70;99.90;;;;;;5023210;28;20509;-67
2022/11/28 08:45:36;;;;;;;0.10;0.10;;;8.70;99.90;;;;;;5017400;28;20439;-67
2022/11/28 08:48:02;;;;;;;0.10;0.10;;;8.70;99.90;;;;;;5011655;28;20085;-66
2022/11/28 08:50:28;;;;;;;0.20;0.20;;;8.80;99.90;;;;;;5012276;28;20058;-66
2022/11/28 08:52:53;;;;;;;0.10;0.10;;;8.70;99.90;;;;;;5024812;28;20054;-66
2022/11/28 08:55:19;;;;;;;0.43;0.43;;;8.70;99.90;;;;;;5018986;28;20172;-66
2022/11/28 08:57:44;;;;;;;0.30;0.30;;;8.80;99.90;;;;;;5009934;28;20409;-66
2022/11/28 09:00:11;;;;;;;0.38;0.38;;;8.80;99.90;;;;;;5025248;28;20038;-67
2022/11/28 09:02:36;;;;;;;5.25;1.52;;;8.80;99.90;;;;;;5022751;28;20060;-65
2022/11/28 09:05:02;;;;;;;0.70;0.70;;;8.80;99.90;;;;;;5011527;28;20477;-66
2022/11/28 09:07:27;;;;;;;1.17;1.05;;;8.80;99.90;;;;;;5027672;28;20509;-66
2022/11/28 09:09:53;;;;;;;0.10;0.10;;;8.80;99.90;;;;;;5029187;28;20063;-66
2022/11/28 09:12:19;;;;;;;4.80;2.03;;;8.90;99.90;;;;;;5031155;28;20061;-66
2022/11/28 09:14:44;;;;;;;0.10;0.10;;;8.90;99.90;;;;;;5039035;28;20087;-66
2022/11/28 09:17:10;;;;;;;0.70;0.65;;;8.90;99.90;;;;;;5021808;28;20096;-66
2022/11/28 09:19:35;;;;;;;1.20;1.20;;;8.90;99.90;;;;;;5009013;28;20066;-66
2022/11/28 09:22:01;;;;;;;0.17;0.17;;;8.90;99.90;;;;;;5010188;28;20117;-65
2022/11/28 09:24:26;;;;;;;0.90;0.90;;;8.90;99.90;;;;;;5010953;28;20723;-66
2022/11/28 09:26:52;;;;;;;1.17;1.17;;;9.00;99.90;;;;;;5022420;28;20037;-66
2022/11/28 09:29:17;;;;;;;0.73;0.73;;;8.90;99.90;;;;;;5010837;28;20057;-66
2022/11/28 09:31:43;;;;;;;0.80;0.75;;;9.00;99.90;;;;;;5027547;28;20049;-66
2022/11/28 09:34:08;;;;;;;0.20;0.20;;;9.00;99.90;;;;;;5013246;28;20132;-66
2022/11/28 09:36:34;;;;;;;0.20;0.20;;;9.00;99.90;;;;;;5017067;28;20083;-66
2022/11/28 09:39:00;;;;;;;0.95;0.95;;;9.00;99.90;;;;;;5010432;28;20410;-66
2022/11/28 09:41:38;;;;;;;3.70;2.33;;;9.00;99.90;;;;;;5015123;28;20073;-66
2022/11/28 09:44:14;;;;;;;0.65;0.65;;;9.10;99.90;;;;;;5009822;28;20437;-66
2022/11/28 09:46:41;;;;;;;0.35;0.35;;;9.00;99.90;;;;;;5022459;28;20046;-66
2022/11/28 09:49:30;;;;;;;0.50;0.50;;;9.10;99.90;;;;;;5009508;28;20041;-65
2022/11/28 09:52:08;;;;;;;0.00;0.00;;;9.10;99.90;;;;;;5025148;28;20045;-66
2022/11/28 09:54:43;;;;;;;0.20;0.20;;;9.10;99.90;;;;;;5016801;28;20072;-66
2022/11/28 09:57:20;;;;;;;0.32;0.32;;;9.10;99.90;;;;;;5018544;28;20547;-66
2022/11/28 09:59:46;;;;;;;0.30;0.30;;;9.10;99.90;;;;;;5024780;28;20493;-66
2022/11/28 10:02:14;;;;;;;1.17;0.63;;;9.10;99.90;;;;;;5017502;28;20077;-66
2022/11/28 10:05:03;;;;;;;0.22;0.22;;;9.10;99.90;;;;;;5019030;28;20567;-66
2022/11/28 10:07:50;;;;;;;0.55;0.47;;;9.20;99.90;;;;;;5013757;28;20053;-66
2022/11/28 10:10:42;;;;;;;0.57;0.57;;;9.20;99.90;;;;;;5030356;28;20124;-67
2022/11/28 10:13:12;;;;;;;0.20;0.20;;;9.20;99.90;;;;;;5021003;28;20516;-66
2022/11/28 10:15:59;;;;;;;0.57;0.57;;;9.20;99.90;;;;;;5022031;28;20056;-66
2022/11/28 10:18:44;;;;;;;1.42;1.35;;;9.20;99.90;;;;;;5014423;28;20382;-66
2022/11/28 10:21:22;;;;;;;0.10;0.10;;;9.20;99.90;;;;;;5032522;28;20455;-66
2022/11/28 10:23:52;;;;;;;0.88;0.85;;;9.20;99.90;;;;;;5011789;28;20050;-64
2022/11/28 10:26:40;;;;;;;0.50;0.50;;;9.20;99.90;;;;;;5016272;28;20034;-66
2022/11/28 10:29:32;;;;;;;0.70;0.70;;;9.20;99.90;;;;;;5014122;28;20038;-66
2022/11/28 10:32:02;;;;;;;0.20;0.20;;;9.20;99.90;;;;;;5020904;28;20149;-66
2022/11/28 10:34:54;;;;;;;0.10;0.10;;;9.20;99.90;;;;;;5017486;28;20509;-66
2022/11/28 10:37:27;;;;;;;0.20;0.20;;;9.20;99.90;;;;;;5026213;28;20487;-66
2022/11/28 10:39:54;;;;;;;1.40;0.98;;;9.30;99.90;;;;;;5029815;28;20048;-65
2022/11/28 10:42:22;;;;;;;0.10;0.10;;;9.20;99.90;;;;;;5016385;28;20049;-66
2022/11/28 10:45:12;;;;;;;0.25;0.25;;;9.30;99.90;;;;;;5011210;28;20034;-66
2022/11/28 10:47:59;;;;;;;0.60;0.60;;;9.30;99.90;;;;;;5020066;28;20053;-66
2022/11/28 10:50:54;;;;;;;0.57;0.57;;;9.30;99.90;;;;;;5009654;28;20052;-66
2022/11/28 10:53:36;;;;;;;0.68;0.68;;;9.30;99.90;;;;;;5008078;28;20042;-66
2022/11/28 10:56:24;;;;;;;0.55;0.55;;;9.30;99.90;;;;;;5019118;28;20401;-66
2022/11/28 10:59:03;;;;;;;0.10;0.10;;;9.30;99.90;;;;;;5006348;28;20513;-66
2022/11/28 11:01:33;;;;;;;0.50;0.50;;;9.30;99.90;;;;;;5010125;28;20545;-66
2022/11/28 11:03:59;;;;;;;3.53;2.85;;;9.30;99.90;;;;;;5022932;28;20160;-66
2022/11/28 11:06:25;;;;;;;0.30;0.30;;;9.30;99.90;;;;;;5009479;28;20148;-66
2022/11/28 11:08:51;;;;;;;0.20;0.20;;;9.30;99.90;;;;;;5008045;28;20048;-66
2022/11/28 11:11:26;;;;;;;0.45;0.45;;;9.30;99.90;;;;;;5021113;28;20041;-66
2022/11/28 11:14:10;;;;;;;0.20;0.20;;;9.30;99.90;;;;;;5023462;28;20042;-65
2022/11/28 11:17:00;;;;;;;0.28;0.28;;;9.30;99.90;;;;;;5008251;28;20072;-66
2022/11/28 11:19:35;;;;;;;0.47;0.47;;;9.30;99.90;;;;;;5007373;28;20037;-66
2022/11/28 11:22:11;;;;;;;0.90;0.70;;;9.30;99.90;;;;;;5009999;28;20056;-66
2022/11/28 11:24:37;;;;;;;0.20;0.20;;;9.30;99.90;;;;;;5009688;28;20045;-66
2022/11/28 11:27:18;;;;;;;0.20;0.20;;;9.30;99.90;;;;;;5030637;28;20045;-66
2022/11/28 11:29:44;;;;;;;0.10;0.10;;;9.30;99.90;;;;;;5007029;28;20099;-66
2022/11/28 11:32:25;;;;;;;0.20;0.20;;;9.30;99.90;;;;;;5011241;28;20054;-65
2022/11/28 11:34:51;;;;;;;2.85;1.23;;;9.30;99.90;;;;;;5010449;28;20042;-65
2022/11/28 11:37:31;;;;;;;3.83;0.75;;;9.40;99.90;;;;;;5006772;28;20049;-65
2022/11/28 11:39:58;;;;;;;0.45;0.45;;;9.40;99.90;;;;;;5011759;28;20482;-65
2022/11/28 11:42:29;;;;;;;0.30;0.30;;;9.30;99.90;;;;;;5010988;28;20091;-66
2022/11/28 11:44:55;;;;;;;0.77;0.63;;;9.40;99.90;;;;;;5006163;28;20050;-65
2022/11/28 11:47:41;;;;;;;0.35;0.35;;;9.40;99.90;;;;;;5023102;28;20045;-65
2022/11/28 11:50:16;;;;;;;0.43;0.43;;;9.30;99.90;;;;;;5019570;28;20077;-65
2022/11/28 11:52:41;;;;;;;0.98;0.98;;;9.30;99.90;;;;;;5026024;28;20214;-65
2022/11/28 11:55:15;;;;;;;1.55;1.10;;;9.30;99.90;;;;;;5026134;28;20045;-66
2022/11/28 11:57:50;;;;;;;;;;;9.30;99.90;;;;;;5008836;28;20057;-66
2022/11/28 12:00:21;;;;;;;0.30;0.30;;;9.30;99.90;;;;;;5039479;28;19958;-66
2022/11/28 12:03:01;;;;;;;3.40;2.08;;;9.20;99.90;;;;;;5022112;28;20468;-66
2022/11/28 12:05:48;;;;;;;1.75;0.55;;;9.20;99.90;;;;;;5007684;28;20424;-66
2022/11/28 12:08:51;;;;;;;1.15;1.13;;;9.30;99.90;;;;;;5020926;28;20428;-65
2022/11/28 12:11:20;;;;;;;0.98;0.98;;;9.20;99.90;;;;;;5016962;28;20133;-66
2022/11/28 12:13:46;;;;;;;0.28;0.28;;;9.30;99.90;;;;;;5034121;28;20481;-66
2022/11/28 12:16:39;;;;;;;0.43;0.43;;;9.30;99.90;;;;;;5014284;28;20050;-66
2022/11/28 12:19:23;;;;;;;0.20;0.20;;;9.20;99.90;;;;;;5012179;28;20064;-66
2022/11/28 12:22:16;;;;;;;0.30;0.30;;;9.30;99.90;;;;;;5023685;28;20048;-66
2022/11/28 12:25:07;;;;;;;0.63;0.63;;;9.30;99.90;;;;;;5025528;28;20064;-66
2022/11/28 12:27:59;;;;;;;1.05;0.95;;;9.30;99.90;;;;;;5013104;28;20493;-66
2022/11/28 12:30:46;;;;;;;0.65;0.65;;;9.30;99.90;;;;;;5015775;28;20058;-66
2022/11/28 12:33:32;;;;;;;0.17;0.17;;;9.30;99.90;;;;;;5012987;28;20494;-66
2022/11/28 12:36:11;;;;;;;0.80;0.80;;;9.30;99.90;;;;;;5014892;28;20056;-65
2022/11/28 12:39:01;;;;;;;1.00;1.00;;;9.40;99.90;;;;;;5021415;28;20141;-65
2022/11/28 12:41:36;;;;;;;0.35;0.35;;;9.40;99.90;;;;;;5009657;28;20508;-65
2022/11/28 12:44:13;;;;;;;0.28;0.28;;;9.40;99.90;;;;;;5021280;28;20056;-66
2022/11/28 12:47:04;;;;;;;0.55;0.55;;;9.40;99.90;;;;;;5028889;28;20064;-64
2022/11/28 12:49:51;;;;;;;0.20;0.17;;;9.40;99.90;;;;;;5021035;28;20041;-65
2022/11/28 12:52:30;;;;;;;0.98;0.77;;;9.40;99.90;;;;;;5018322;28;20054;-66
2022/11/28 12:55:03;;;;;;;0.65;0.52;;;9.30;99.90;;;;;;5015614;28;20033;-65
2022/11/28 12:57:41;;;;;;;0.52;0.52;;;9.30;99.90;;;;;;5040702;28;20160;-65
2022/11/28 13:00:27;;;;;;;0.70;0.65;;;9.40;99.90;;;;;;5018845;28;20054;-66
2022/11/28 13:03:27;;;;;;;3.58;2.17;;;9.30;99.90;;;;;;5010606;28;20065;-65
2022/11/28 13:05:58;;;;;;;0.47;0.47;;;9.30;99.90;;;;;;5016186;28;20045;-65
2022/11/28 13:08:42;;;;;;;0.85;0.85;;;9.30;99.90;;;;;;5028782;28;20102;-65
2022/11/28 13:11:11;;;;;;;1.08;0.65;;;9.30;99.90;;;;;;5029714;28;20050;-64
2022/11/28 13:13:52;;;;;;;0.65;0.65;;;9.30;99.90;;;;;;5011476;28;20081;-64
2022/11/28 13:16:56;;;;;;;0.57;0.57;;;9.40;99.90;;;;;;5029164;28;20132;-65
2022/11/28 13:19:50;;;;;;;0.68;0.68;;;9.40;99.90;;;;;;5017418;28;20124;-65
2022/11/28 13:22:23;;;;;;;4.05;1.83;;;9.40;99.90;;;;;;5014519;28;20564;-67